sensor_id;sensor_type;location;lat;lon;timestamp;temperature;humidity
20483;DHT22;10400;53.198;6.592;2023-07-13T00:01:31;17.70;99.90
20483;DHT22;10400;53.198;6.592;2023-07-13T00:03:57;17.70;99.90
20483;DHT22;10400;53.198;6.592;2023-07-13T00:06:23;17.70;99.90
20483;DHT22;10400;53.198;6.592;2023-07-13T00:08:48;17.70;99.90
20483;DHT22;10400;53.198;6.592;2023-07-13T00:11:15;17.60;99.90
20483;DHT22;10400;53.198;6.592;2023-07-13T00:13:42;17.60;99.90
20483;DHT22;10400;53.198;6.592;2023-07-13T00:16:09;17.50;99.90
20483;DHT22;10400;53.198;6.592;2023-07-13T00:18:35;17.50;99.90
20483;DHT22;10400;53.198;6.592;2023-07-13T00:21:00;17.60;99.90
20483;DHT22;10400;53.198;6.592;2023-07-13T00:23:35;17.60;99.90
20483;DHT22;10400;53.198;6.592;2023-07-13T00:26:02;17.60;99.90
20483;DHT22;10400;53.198;6.592;2023-07-13T00:28:28;17.60;99.90
20483;DHT22;10400;53.198;6.592;2023-07-13T00:30:54;17.60;99.90
20483;DHT22;10400;53.198;6.592;2023-07-13T00:33:20;17.60;99.90
20483;DHT22;10400;53.198;6.592;2023-07-13T00:35:45;17.50;99.90
20483;DHT22;10400;53.198;6.592;2023-07-13T00:38:11;17.50;99.90
20483;DHT22;10400;53.198;6.592;2023-07-13T00:40:37;17.50;99.90
20483;DHT22;10400;53.198;6.592;2023-07-13T00:43:04;17.60;99.90
20483;DHT22;10400;53.198;6.592;2023-07-13T00:47:56;17.50;99.90
20483;DHT22;10400;53.198;6.592;2023-07-13T00:50:23;17.50;99.90
20483;DHT22;10400;53.198;6.592;2023-07-13T00:52:53;17.50;99.90
20483;DHT22;10400;53.198;6.592;2023-07-13T00:55:21;17.50;99.90
20483;DHT22;10400;53.198;6.592;2023-07-13T00:57:47;17.40;99.90
20483;DHT22;10400;53.198;6.592;2023-07-13T01:00:13;17.40;99.90
20483;DHT22;10400;53.198;6.592;2023-07-13T01:02:42;17.40;99.90
20483;DHT22;10400;53.198;6.592;2023-07-13T01:05:15;17.50;99.90
20483;DHT22;10400;53.198;6.592;2023-07-13T01:07:42;17.40;99.90
20483;DHT22;10400;53.198;6.592;2023-07-13T01:10:09;17.30;99.90
20483;DHT22;10400;53.198;6.592;2023-07-13T01:12:36;17.30;99.90
20483;DHT22;10400;53.198;6.592;2023-07-13T01:15:03;17.30;99.90
20483;DHT22;10400;53.198;6.592;2023-07-13T01:17:31;17.30;99.90
20483;DHT22;10400;53.198;6.592;2023-07-13T01:19:58;17.20;99.90
20483;DHT22;10400;53.198;6.592;2023-07-13T01:22:24;17.20;99.90
20483;DHT22;10400;53.198;6.592;2023-07-13T01:24:52;17.10;99.90
20483;DHT22;10400;53.198;6.592;2023-07-13T01:27:22;17.20;99.90
20483;DHT22;10400;53.198;6.592;2023-07-13T01:29:52;17.20;99.90
20483;DHT22;10400;53.198;6.592;2023-07-13T01:32:21;17.10;99.90
20483;DHT22;10400;53.198;6.592;2023-07-13T01:34:50;17.10;99.90
20483;DHT22;10400;53.198;6.592;2023-07-13T01:37:16;17.10;99.90
20483;DHT22;10400;53.198;6.592;2023-07-13T01:39:42;17.10;99.90
20483;DHT22;10400;53.198;6.592;2023-07-13T01:42:08;17.10;99.90
20483;DHT22;10400;53.198;6.592;2023-07-13T01:44:34;17.10;99.90
20483;DHT22;10400;53.198;6.592;2023-07-13T01:47:01;17.10;99.90
20483;DHT22;10400;53.198;6.592;2023-07-13T01:49:26;17.10;99.90
20483;DHT22;10400;53.198;6.592;2023-07-13T01:51:52;17.10;99.90
20483;DHT22;10400;53.198;6.592;2023-07-13T01:54:17;17.10;99.90
20483;DHT22;10400;53.198;6.592;2023-07-13T01:56:43;17.10;99.90
20483;DHT22;10400;53.198;6.592;2023-07-13T01:59:09;17.10;99.90
20483;DHT22;10400;53.198;6.592;2023-07-13T02:01:35;17.10;99.90
20483;DHT22;10400;53.198;6.592;2023-07-13T02:04:01;17.10;99.90
20483;DHT22;10400;53.198;6.592;2023-07-13T02:06:27;17.10;99.90
20483;DHT22;10400;53.198;6.592;2023-07-13T02:08:53;17.10;99.90
20483;DHT22;10400;53.198;6.592;2023-07-13T02:11:18;17.10;99.90
20483;DHT22;10400;53.198;6.592;2023-07-13T02:13:44;17.00;99.90
20483;DHT22;10400;53.198;6.592;2023-07-13T02:16:09;17.00;99.90
20483;DHT22;10400;53.198;6.592;2023-07-13T02:18:35;17.00;99.90
20483;DHT22;10400;53.198;6.592;2023-07-13T02:21:01;17.00;99.90
20483;DHT22;10400;53.198;6.592;2023-07-13T02:23:28;17.00;99.90
20483;DHT22;10400;53.198;6.592;2023-07-13T02:25:58;17.00;99.90
20483;DHT22;10400;53.198;6.592;2023-07-13T02:28:23;16.90;99.90
20483;DHT22;10400;53.198;6.592;2023-07-13T02:30:49;16.90;99.90
20483;DHT22;10400;53.198;6.592;2023-07-13T02:33:15;16.90;99.90
20483;DHT22;10400;53.198;6.592;2023-07-13T02:35:40;16.90;99.90
20483;DHT22;10400;53.198;6.592;2023-07-13T02:38:06;16.90;99.90
20483;DHT22;10400;53.198;6.592;2023-07-13T02:40:32;16.80;99.90
20483;DHT22;10400;53.198;6.592;2023-07-13T02:43:02;16.80;99.90
20483;DHT22;10400;53.198;6.592;2023-07-13T02:45:28;16.80;99.90
20483;DHT22;10400;53.198;6.592;2023-07-13T02:47:54;16.90;99.90
20483;DHT22;10400;53.198;6.592;2023-07-13T02:50:20;16.80;99.90
20483;DHT22;10400;53.198;6.592;2023-07-13T02:52:45;16.80;99.90
20483;DHT22;10400;53.198;6.592;2023-07-13T02:55:11;16.80;99.90
20483;DHT22;10400;53.198;6.592;2023-07-13T02:57:37;16.80;99.90
20483;DHT22;10400;53.198;6.592;2023-07-13T03:00:03;16.80;99.90
20483;DHT22;10400;53.198;6.592;2023-07-13T03:02:33;16.80;99.90
20483;DHT22;10400;53.198;6.592;2023-07-13T03:04:59;16.80;99.90
20483;DHT22;10400;53.198;6.592;2023-07-13T03:07:25;16.80;99.90
20483;DHT22;10400;53.198;6.592;2023-07-13T03:09:55;16.80;99.90
20483;DHT22;10400;53.198;6.592;2023-07-13T03:12:21;16.70;99.90
20483;DHT22;10400;53.198;6.592;2023-07-13T03:14:47;16.70;99.90
20483;DHT22;10400;53.198;6.592;2023-07-13T03:17:13;16.70;99.90
20483;DHT22;10400;53.198;6.592;2023-07-13T03:19:38;16.70;99.90
20483;DHT22;10400;53.198;6.592;2023-07-13T03:22:04;16.70;99.90
20483;DHT22;10400;53.198;6.592;2023-07-13T03:24:30;16.70;99.90
20483;DHT22;10400;53.198;6.592;2023-07-13T03:26:57;16.60;99.90
20483;DHT22;10400;53.198;6.592;2023-07-13T03:29:23;16.60;99.90
20483;DHT22;10400;53.198;6.592;2023-07-13T03:31:48;16.60;99.90
20483;DHT22;10400;53.198;6.592;2023-07-13T03:34:14;16.50;99.90
20483;DHT22;10400;53.198;6.592;2023-07-13T03:36:40;16.60;99.90
20483;DHT22;10400;53.198;6.592;2023-07-13T03:39:05;16.60;99.90
20483;DHT22;10400;53.198;6.592;2023-07-13T03:41:33;16.60;99.90
20483;DHT22;10400;53.198;6.592;2023-07-13T03:43:59;16.60;99.90
20483;DHT22;10400;53.198;6.592;2023-07-13T03:46:25;16.60;99.90
20483;DHT22;10400;53.198;6.592;2023-07-13T03:48:51;16.60;99.90
20483;DHT22;10400;53.198;6.592;2023-07-13T03:51:17;16.70;99.90
20483;DHT22;10400;53.198;6.592;2023-07-13T03:53:44;16.70;99.90
20483;DHT22;10400;53.198;6.592;2023-07-13T03:56:10;16.70;99.90
20483;DHT22;10400;53.198;6.592;2023-07-13T03:58:39;16.70;99.90
20483;DHT22;10400;53.198;6.592;2023-07-13T04:01:07;16.70;99.90
20483;DHT22;10400;53.198;6.592;2023-07-13T04:03:33;16.70;99.90
20483;DHT22;10400;53.198;6.592;2023-07-13T04:05:59;16.60;99.90
20483;DHT22;10400;53.198;6.592;2023-07-13T04:08:30;16.60;99.90
20483;DHT22;10400;53.198;6.592;2023-07-13T04:10:56;16.60;99.90
20483;DHT22;10400;53.198;6.592;2023-07-13T04:13:22;16.60;99.90
20483;DHT22;10400;53.198;6.592;2023-07-13T04:15:48;16.70;99.90
20483;DHT22;10400;53.198;6.592;2023-07-13T04:18:14;16.60;99.90
20483;DHT22;10400;53.198;6.592;2023-07-13T04:20:40;16.60;99.90
20483;DHT22;10400;53.198;6.592;2023-07-13T04:23:05;16.60;99.90
20483;DHT22;10400;53.198;6.592;2023-07-13T04:25:31;16.60;99.90
20483;DHT22;10400;53.198;6.592;2023-07-13T04:27:57;16.60;99.90
20483;DHT22;10400;53.198;6.592;2023-07-13T04:30:23;16.60;99.90
20483;DHT22;10400;53.198;6.592;2023-07-13T04:32:51;16.50;99.90
20483;DHT22;10400;53.198;6.592;2023-07-13T04:35:18;16.60;99.90
20483;DHT22;10400;53.198;6.592;2023-07-13T04:37:46;16.60;99.90
20483;DHT22;10400;53.198;6.592;2023-07-13T04:40:12;16.60;99.90
20483;DHT22;10400;53.198;6.592;2023-07-13T04:42:38;16.60;99.90
20483;DHT22;10400;53.198;6.592;2023-07-13T04:45:06;16.60;99.90
20483;DHT22;10400;53.198;6.592;2023-07-13T04:47:32;16.70;99.90
20483;DHT22;10400;53.198;6.592;2023-07-13T04:49:58;16.70;99.90
20483;DHT22;10400;53.198;6.592;2023-07-13T04:52:24;16.80;99.90
20483;DHT22;10400;53.198;6.592;2023-07-13T04:54:49;16.80;99.90
20483;DHT22;10400;53.198;6.592;2023-07-13T04:57:15;16.80;99.90
20483;DHT22;10400;53.198;6.592;2023-07-13T04:59:41;16.80;99.90
20483;DHT22;10400;53.198;6.592;2023-07-13T05:02:07;16.90;99.90
20483;DHT22;10400;53.198;6.592;2023-07-13T05:04:33;16.90;99.90
20483;DHT22;10400;53.198;6.592;2023-07-13T05:06:59;17.00;99.90
20483;DHT22;10400;53.198;6.592;2023-07-13T05:09:25;17.20;99.90
20483;DHT22;10400;53.198;6.592;2023-07-13T05:11:51;17.30;99.90
20483;DHT22;10400;53.198;6.592;2023-07-13T05:14:16;17.30;99.90
20483;DHT22;10400;53.198;6.592;2023-07-13T05:16:42;17.40;99.90
20483;DHT22;10400;53.198;6.592;2023-07-13T05:19:08;17.40;99.90
20483;DHT22;10400;53.198;6.592;2023-07-13T05:21:34;17.50;99.90
20483;DHT22;10400;53.198;6.592;2023-07-13T05:24:00;17.50;99.90
20483;DHT22;10400;53.198;6.592;2023-07-13T05:26:26;17.60;99.90
20483;DHT22;10400;53.198;6.592;2023-07-13T05:28:51;17.70;99.90
20483;DHT22;10400;53.198;6.592;2023-07-13T05:31:17;17.80;99.90
20483;DHT22;10400;53.198;6.592;2023-07-13T05:33:42;17.90;99.90
20483;DHT22;10400;53.198;6.592;2023-07-13T05:36:08;17.90;99.90
20483;DHT22;10400;53.198;6.592;2023-07-13T05:38:34;18.00;99.90
20483;DHT22;10400;53.198;6.592;2023-07-13T05:41:00;18.10;99.90
20483;DHT22;10400;53.198;6.592;2023-07-13T05:43:26;18.10;99.90
20483;DHT22;10400;53.198;6.592;2023-07-13T05:45:53;18.10;99.90
20483;DHT22;10400;53.198;6.592;2023-07-13T05:48:20;18.10;99.90
20483;DHT22;10400;53.198;6.592;2023-07-13T05:50:45;18.20;99.90
20483;DHT22;10400;53.198;6.592;2023-07-13T05:53:12;18.20;99.90
20483;DHT22;10400;53.198;6.592;2023-07-13T05:55:42;18.30;99.90
20483;DHT22;10400;53.198;6.592;2023-07-13T05:58:09;18.30;99.90
20483;DHT22;10400;53.198;6.592;2023-07-13T06:00:34;18.40;99.90
20483;DHT22;10400;53.198;6.592;2023-07-13T06:03:00;18.50;99.90
20483;DHT22;10400;53.198;6.592;2023-07-13T06:05:26;18.60;99.90
20483;DHT22;10400;53.198;6.592;2023-07-13T06:07:53;18.70;99.90
20483;DHT22;10400;53.198;6.592;2023-07-13T06:10:19;18.70;99.90
20483;DHT22;10400;53.198;6.592;2023-07-13T06:12:45;18.70;99.90
20483;DHT22;10400;53.198;6.592;2023-07-13T06:15:11;18.90;99.90
20483;DHT22;10400;53.198;6.592;2023-07-13T06:17:37;18.90;99.90
20483;DHT22;10400;53.198;6.592;2023-07-13T06:20:03;19.00;99.90
20483;DHT22;10400;53.198;6.592;2023-07-13T06:22:28;19.10;99.90
20483;DHT22;10400;53.198;6.592;2023-07-13T06:24:54;19.20;99.90
20483;DHT22;10400;53.198;6.592;2023-07-13T06:27:20;19.20;99.90
20483;DHT22;10400;53.198;6.592;2023-07-13T06:29:46;19.20;99.90
20483;DHT22;10400;53.198;6.592;2023-07-13T06:32:11;19.20;99.90
20483;DHT22;10400;53.198;6.592;2023-07-13T06:34:37;19.30;99.90
20483;DHT22;10400;53.198;6.592;2023-07-13T06:37:03;19.30;99.90
20483;DHT22;10400;53.198;6.592;2023-07-13T06:39:28;19.50;99.90
20483;DHT22;10400;53.198;6.592;2023-07-13T06:41:54;19.50;99.90
20483;DHT22;10400;53.198;6.592;2023-07-13T06:44:20;19.50;99.90
20483;DHT22;10400;53.198;6.592;2023-07-13T06:46:45;19.60;99.90
20483;DHT22;10400;53.198;6.592;2023-07-13T06:49:11;19.70;99.90
20483;DHT22;10400;53.198;6.592;2023-07-13T06:51:36;19.80;99.90
20483;DHT22;10400;53.198;6.592;2023-07-13T06:54:03;19.80;99.90
20483;DHT22;10400;53.198;6.592;2023-07-13T06:56:28;20.00;99.90
20483;DHT22;10400;53.198;6.592;2023-07-13T06:58:54;19.70;99.90
20483;DHT22;10400;53.198;6.592;2023-07-13T07:01:20;19.60;99.90
20483;DHT22;10400;53.198;6.592;2023-07-13T07:03:45;19.70;99.90
20483;DHT22;10400;53.198;6.592;2023-07-13T07:06:16;19.80;99.90
20483;DHT22;10400;53.198;6.592;2023-07-13T07:08:42;19.80;99.90
20483;DHT22;10400;53.198;6.592;2023-07-13T07:11:17;20.00;99.90
20483;DHT22;10400;53.198;6.592;2023-07-13T07:13:43;20.10;99.90
20483;DHT22;10400;53.198;6.592;2023-07-13T07:16:09;20.10;99.90
20483;DHT22;10400;53.198;6.592;2023-07-13T07:18:35;20.30;99.90
20483;DHT22;10400;53.198;6.592;2023-07-13T07:21:00;20.40;82.20
20483;DHT22;10400;53.198;6.592;2023-07-13T07:23:26;20.30;80.40
20483;DHT22;10400;53.198;6.592;2023-07-13T07:25:52;20.10;89.40
20483;DHT22;10400;53.198;6.592;2023-07-13T07:28:18;19.90;81.30
20483;DHT22;10400;53.198;6.592;2023-07-13T07:30:47;19.70;91.50
20483;DHT22;10400;53.198;6.592;2023-07-13T07:33:14;19.70;96.10
20483;DHT22;10400;53.198;6.592;2023-07-13T07:35:39;19.80;93.10
20483;DHT22;10400;53.198;6.592;2023-07-13T07:38:05;19.90;96.70
20483;DHT22;10400;53.198;6.592;2023-07-13T07:40:31;19.90;99.40
20483;DHT22;10400;53.198;6.592;2023-07-13T07:42:57;19.80;94.90
20483;DHT22;10400;53.198;6.592;2023-07-13T07:45:23;19.60;99.90
20483;DHT22;10400;53.198;6.592;2023-07-13T07:47:49;19.50;99.90
20483;DHT22;10400;53.198;6.592;2023-07-13T07:50:15;19.50;99.90
20483;DHT22;10400;53.198;6.592;2023-07-13T07:52:40;19.70;99.90
20483;DHT22;10400;53.198;6.592;2023-07-13T07:55:07;19.80;99.90
20483;DHT22;10400;53.198;6.592;2023-07-13T07:57:33;19.80;99.90
20483;DHT22;10400;53.198;6.592;2023-07-13T07:59:59;19.80;99.90
20483;DHT22;10400;53.198;6.592;2023-07-13T08:02:26;19.70;99.90
20483;DHT22;10400;53.198;6.592;2023-07-13T08:04:52;19.40;99.90
20483;DHT22;10400;53.198;6.592;2023-07-13T08:07:18;19.00;99.90
20483;DHT22;10400;53.198;6.592;2023-07-13T08:09:43;18.90;99.90
20483;DHT22;10400;53.198;6.592;2023-07-13T08:12:09;18.70;99.90
20483;DHT22;10400;53.198;6.592;2023-07-13T08:14:35;18.60;99.90
20483;DHT22;10400;53.198;6.592;2023-07-13T08:17:01;18.60;99.90
20483;DHT22;10400;53.198;6.592;2023-07-13T08:19:27;18.70;99.90
20483;DHT22;10400;53.198;6.592;2023-07-13T08:21:53;18.70;99.90
20483;DHT22;10400;53.198;6.592;2023-07-13T08:24:21;18.90;99.90
20483;DHT22;10400;53.198;6.592;2023-07-13T08:26:47;19.10;99.90
20483;DHT22;10400;53.198;6.592;2023-07-13T08:29:12;19.20;99.90
20483;DHT22;10400;53.198;6.592;2023-07-13T08:31:38;19.30;99.90
20483;DHT22;10400;53.198;6.592;2023-07-13T08:34:03;19.50;99.90
20483;DHT22;10400;53.198;6.592;2023-07-13T08:36:29;19.70;99.90
20483;DHT22;10400;53.198;6.592;2023-07-13T08:38:55;19.80;99.90
20483;DHT22;10400;53.198;6.592;2023-07-13T08:41:21;20.00;99.90
20483;DHT22;10400;53.198;6.592;2023-07-13T08:43:57;20.20;99.00
20483;DHT22;10400;53.198;6.592;2023-07-13T08:48:56;20.90;87.30
20483;DHT22;10400;53.198;6.592;2023-07-13T08:51:32;21.30;62.00
20483;DHT22;10400;53.198;6.592;2023-07-13T08:54:01;21.10;16.20
20483;DHT22;10400;53.198;6.592;2023-07-13T08:56:29;21.00;12.20
20483;DHT22;10400;53.198;6.592;2023-07-13T08:59:02;21.20;17.00
20483;DHT22;10400;53.198;6.592;2023-07-13T09:01:53;21.50;19.90
20483;DHT22;10400;53.198;6.592;2023-07-13T09:04:32;21.60;1.00
20483;DHT22;10400;53.198;6.592;2023-07-13T09:14:55;21.50;1.00
20483;DHT22;10400;53.198;6.592;2023-07-13T09:17:45;21.30;1.00
20483;DHT22;10400;53.198;6.592;2023-07-13T09:20:34;21.00;1.00
20483;DHT22;10400;53.198;6.592;2023-07-13T09:23:03;20.90;1.00
20483;DHT22;10400;53.198;6.592;2023-07-13T09:25:35;21.10;1.00
20483;DHT22;10400;53.198;6.592;2023-07-13T09:28:20;21.40;1.00
20483;DHT22;10400;53.198;6.592;2023-07-13T09:33:32;21.00;1.00
20483;DHT22;10400;53.198;6.592;2023-07-13T09:35:59;20.80;1.00
20483;DHT22;10400;53.198;6.592;2023-07-13T09:38:29;20.80;1.00
20483;DHT22;10400;53.198;6.592;2023-07-13T09:44:10;20.90;1.00
20483;DHT22;10400;53.198;6.592;2023-07-13T09:46:37;20.90;1.00
20483;DHT22;10400;53.198;6.592;2023-07-13T09:49:03;21.00;1.00
20483;DHT22;10400;53.198;6.592;2023-07-13T09:51:29;21.40;1.00
20483;DHT22;10400;53.198;6.592;2023-07-13T09:53:55;21.70;1.00
20483;DHT22;10400;53.198;6.592;2023-07-13T09:56:22;21.80;1.00
20483;DHT22;10400;53.198;6.592;2023-07-13T09:58:48;21.80;1.00
20483;DHT22;10400;53.198;6.592;2023-07-13T10:01:13;21.60;1.00
20483;DHT22;10400;53.198;6.592;2023-07-13T10:03:39;21.60;1.00
20483;DHT22;10400;53.198;6.592;2023-07-13T10:06:18;21.40;1.00
20483;DHT22;10400;53.198;6.592;2023-07-13T10:08:45;21.30;1.00
20483;DHT22;10400;53.198;6.592;2023-07-13T10:11:22;21.00;1.00
20483;DHT22;10400;53.198;6.592;2023-07-13T10:13:54;20.80;1.00
20483;DHT22;10400;53.198;6.592;2023-07-13T10:16:22;20.50;30.50
20483;DHT22;10400;53.198;6.592;2023-07-13T10:18:51;20.40;37.80
20483;DHT22;10400;53.198;6.592;2023-07-13T10:21:20;20.40;53.20
20483;DHT22;10400;53.198;6.592;2023-07-13T10:26:53;20.70;16.10
20483;DHT22;10400;53.198;6.592;2023-07-13T10:29:22;20.90;1.00
20483;DHT22;10400;53.198;6.592;2023-07-13T10:31:49;21.20;1.00
20483;DHT22;10400;53.198;6.592;2023-07-13T10:34:15;21.40;1.00
20483;DHT22;10400;53.198;6.592;2023-07-13T10:36:44;21.20;1.00
20483;DHT22;10400;53.198;6.592;2023-07-13T10:39:18;21.10;1.00
20483;DHT22;10400;53.198;6.592;2023-07-13T10:41:48;21.00;1.00
20483;DHT22;10400;53.198;6.592;2023-07-13T10:44:30;21.00;1.00
20483;DHT22;10400;53.198;6.592;2023-07-13T10:47:00;21.10;1.00
20483;DHT22;10400;53.198;6.592;2023-07-13T10:49:29;21.00;1.00
20483;DHT22;10400;53.198;6.592;2023-07-13T10:51:55;21.20;1.00
20483;DHT22;10400;53.198;6.592;2023-07-13T10:54:26;21.30;99.90
20483;DHT22;10400;53.198;6.592;2023-07-13T10:57:20;21.30;99.90
20483;DHT22;10400;53.198;6.592;2023-07-13T11:02:34;21.20;99.90
20483;DHT22;10400;53.198;6.592;2023-07-13T11:05:34;21.10;1.00
20483;DHT22;10400;53.198;6.592;2023-07-13T11:08:13;21.20;1.00
20483;DHT22;10400;53.198;6.592;2023-07-13T11:10:53;21.70;1.00
20483;DHT22;10400;53.198;6.592;2023-07-13T11:13:39;22.00;1.00
20483;DHT22;10400;53.198;6.592;2023-07-13T11:24:57;22.90;1.00
20483;DHT22;10400;53.198;6.592;2023-07-13T11:27:42;22.90;1.00
20483;DHT22;10400;53.198;6.592;2023-07-13T11:36:05;23.10;99.90
20483;DHT22;10400;53.198;6.592;2023-07-13T11:41:06;23.00;1.00
20483;DHT22;10400;53.198;6.592;2023-07-13T11:43:32;23.10;1.00
20483;DHT22;10400;53.198;6.592;2023-07-13T11:46:13;23.10;1.00
20483;DHT22;10400;53.198;6.592;2023-07-13T11:48:38;23.20;73.80
20483;DHT22;10400;53.198;6.592;2023-07-13T11:51:06;23.20;1.00
20483;DHT22;10400;53.198;6.592;2023-07-13T11:53:51;23.00;1.00
20483;DHT22;10400;53.198;6.592;2023-07-13T11:56:17;22.80;1.00
20483;DHT22;10400;53.198;6.592;2023-07-13T11:58:44;23.00;1.00
20483;DHT22;10400;53.198;6.592;2023-07-13T12:01:17;23.20;1.00
20483;DHT22;10400;53.198;6.592;2023-07-13T12:03:44;22.80;99.90
20483;DHT22;10400;53.198;6.592;2023-07-13T12:06:44;22.30;99.90
20483;DHT22;10400;53.198;6.592;2023-07-13T12:09:14;22.30;1.00
20483;DHT22;10400;53.198;6.592;2023-07-13T12:11:44;22.60;1.00
20483;DHT22;10400;53.198;6.592;2023-07-13T12:14:17;22.90;99.90
20483;DHT22;10400;53.198;6.592;2023-07-13T12:16:44;23.30;99.90
20483;DHT22;10400;53.198;6.592;2023-07-13T12:19:26;23.60;99.90
20483;DHT22;10400;53.198;6.592;2023-07-13T12:21:56;24.00;1.00
20483;DHT22;10400;53.198;6.592;2023-07-13T12:24:23;24.20;85.60
20483;DHT22;10400;53.198;6.592;2023-07-13T12:26:59;24.10;1.00
20483;DHT22;10400;53.198;6.592;2023-07-13T12:29:26;24.00;1.00
20483;DHT22;10400;53.198;6.592;2023-07-13T12:31:52;23.80;1.00
20483;DHT22;10400;53.198;6.592;2023-07-13T12:34:22;23.60;1.00
20483;DHT22;10400;53.198;6.592;2023-07-13T12:36:53;23.60;1.00
20483;DHT22;10400;53.198;6.592;2023-07-13T12:41:53;23.50;1.00
20483;DHT22;10400;53.198;6.592;2023-07-13T12:44:26;23.70;1.00
20483;DHT22;10400;53.198;6.592;2023-07-13T12:46:59;23.50;1.00
20483;DHT22;10400;53.198;6.592;2023-07-13T12:49:29;23.40;1.00
20483;DHT22;10400;53.198;6.592;2023-07-13T12:51:59;23.00;99.90
20483;DHT22;10400;53.198;6.592;2023-07-13T12:54:27;22.70;1.00
20483;DHT22;10400;53.198;6.592;2023-07-13T12:56:53;22.50;99.90
20483;DHT22;10400;53.198;6.592;2023-07-13T12:59:21;22.80;99.90
20483;DHT22;10400;53.198;6.592;2023-07-13T13:01:48;23.00;1.00
20483;DHT22;10400;53.198;6.592;2023-07-13T13:04:15;22.90;99.90
20483;DHT22;10400;53.198;6.592;2023-07-13T13:06:42;22.90;21.20
20483;DHT22;10400;53.198;6.592;2023-07-13T13:09:13;23.00;1.00
20483;DHT22;10400;53.198;6.592;2023-07-13T13:11:39;22.70;1.00
20483;DHT22;10400;53.198;6.592;2023-07-13T13:14:05;22.60;1.00
20483;DHT22;10400;53.198;6.592;2023-07-13T13:16:46;22.80;1.00
20483;DHT22;10400;53.198;6.592;2023-07-13T13:19:15;23.10;1.00
20483;DHT22;10400;53.198;6.592;2023-07-13T13:21:43;23.00;1.00
20483;DHT22;10400;53.198;6.592;2023-07-13T13:24:17;23.20;1.00
20483;DHT22;10400;53.198;6.592;2023-07-13T13:26:44;23.00;1.00
20483;DHT22;10400;53.198;6.592;2023-07-13T13:29:15;22.70;1.00
20483;DHT22;10400;53.198;6.592;2023-07-13T13:31:41;22.50;1.00
20483;DHT22;10400;53.198;6.592;2023-07-13T13:34:13;22.60;1.00
20483;DHT22;10400;53.198;6.592;2023-07-13T13:36:39;23.00;1.00
20483;DHT22;10400;53.198;6.592;2023-07-13T13:39:35;23.00;1.00
20483;DHT22;10400;53.198;6.592;2023-07-13T13:42:02;22.60;1.00
20483;DHT22;10400;53.198;6.592;2023-07-13T13:44:27;22.30;1.00
20483;DHT22;10400;53.198;6.592;2023-07-13T13:46:55;22.10;1.00
20483;DHT22;10400;53.198;6.592;2023-07-13T13:49:24;22.10;1.00
20483;DHT22;10400;53.198;6.592;2023-07-13T13:51:51;21.80;1.00
20483;DHT22;10400;53.198;6.592;2023-07-13T13:54:18;21.60;1.00
20483;DHT22;10400;53.198;6.592;2023-07-13T13:56:46;21.70;99.90
20483;DHT22;10400;53.198;6.592;2023-07-13T13:59:13;22.10;99.90
20483;DHT22;10400;53.198;6.592;2023-07-13T14:01:41;22.40;1.00
20483;DHT22;10400;53.198;6.592;2023-07-13T14:04:20;22.50;1.00
20483;DHT22;10400;53.198;6.592;2023-07-13T14:06:47;22.70;1.00
20483;DHT22;10400;53.198;6.592;2023-07-13T14:09:15;22.90;1.00
20483;DHT22;10400;53.198;6.592;2023-07-13T14:11:42;22.90;1.00
20483;DHT22;10400;53.198;6.592;2023-07-13T14:14:14;23.00;1.00
20483;DHT22;10400;53.198;6.592;2023-07-13T14:16:41;22.70;1.00
20483;DHT22;10400;53.198;6.592;2023-07-13T14:19:11;22.70;1.00
20483;DHT22;10400;53.198;6.592;2023-07-13T14:21:36;22.80;1.00
20483;DHT22;10400;53.198;6.592;2023-07-13T14:24:02;23.10;1.00
20483;DHT22;10400;53.198;6.592;2023-07-13T14:26:37;23.10;1.00
20483;DHT22;10400;53.198;6.592;2023-07-13T14:29:11;23.00;1.00
20483;DHT22;10400;53.198;6.592;2023-07-13T14:31:38;23.00;1.00
20483;DHT22;10400;53.198;6.592;2023-07-13T14:34:04;23.20;1.00
20483;DHT22;10400;53.198;6.592;2023-07-13T14:36:32;23.20;1.00
20483;DHT22;10400;53.198;6.592;2023-07-13T14:39:01;23.30;1.00
20483;DHT22;10400;53.198;6.592;2023-07-13T14:41:31;23.40;1.00
20483;DHT22;10400;53.198;6.592;2023-07-13T14:43:58;23.50;1.00
20483;DHT22;10400;53.198;6.592;2023-07-13T14:46:32;23.70;1.00
20483;DHT22;10400;53.198;6.592;2023-07-13T14:49:05;23.90;1.00
20483;DHT22;10400;53.198;6.592;2023-07-13T14:51:33;24.10;1.00
20483;DHT22;10400;53.198;6.592;2023-07-13T14:54:04;23.80;1.00
20483;DHT22;10400;53.198;6.592;2023-07-13T14:56:30;23.80;1.00
20483;DHT22;10400;53.198;6.592;2023-07-13T14:58:56;23.60;1.00
20483;DHT22;10400;53.198;6.592;2023-07-13T15:01:22;23.10;1.00
20483;DHT22;10400;53.198;6.592;2023-07-13T15:03:51;23.00;1.00
20483;DHT22;10400;53.198;6.592;2023-07-13T15:06:18;23.00;1.00
20483;DHT22;10400;53.198;6.592;2023-07-13T15:08:45;23.20;1.00
20483;DHT22;10400;53.198;6.592;2023-07-13T15:11:10;23.70;1.00
20483;DHT22;10400;53.198;6.592;2023-07-13T15:13:40;23.70;1.00
20483;DHT22;10400;53.198;6.592;2023-07-13T15:16:33;23.20;1.00
20483;DHT22;10400;53.198;6.592;2023-07-13T15:19:00;22.90;1.00
20483;DHT22;10400;53.198;6.592;2023-07-13T15:21:25;23.00;1.00
20483;DHT22;10400;53.198;6.592;2023-07-13T15:23:53;23.00;1.00
20483;DHT22;10400;53.198;6.592;2023-07-13T15:26:20;22.70;1.00
20483;DHT22;10400;53.198;6.592;2023-07-13T15:28:46;22.70;1.00
20483;DHT22;10400;53.198;6.592;2023-07-13T15:31:24;22.50;1.00
20483;DHT22;10400;53.198;6.592;2023-07-13T15:33:51;22.70;1.00
20483;DHT22;10400;53.198;6.592;2023-07-13T15:36:21;22.70;1.00
20483;DHT22;10400;53.198;6.592;2023-07-13T15:38:48;22.60;1.00
20483;DHT22;10400;53.198;6.592;2023-07-13T15:41:25;22.30;1.00
20483;DHT22;10400;53.198;6.592;2023-07-13T15:43:53;22.30;22.20
20483;DHT22;10400;53.198;6.592;2023-07-13T15:46:21;22.60;14.40
20483;DHT22;10400;53.198;6.592;2023-07-13T15:48:48;22.90;1.00
20483;DHT22;10400;53.198;6.592;2023-07-13T15:51:21;23.00;1.00
20483;DHT22;10400;53.198;6.592;2023-07-13T15:53:48;22.90;1.00
20483;DHT22;10400;53.198;6.592;2023-07-13T15:56:28;23.10;1.00
20483;DHT22;10400;53.198;6.592;2023-07-13T15:58:55;23.10;1.00
20483;DHT22;10400;53.198;6.592;2023-07-13T16:01:22;23.10;1.00
20483;DHT22;10400;53.198;6.592;2023-07-13T16:03:49;23.10;1.00
20483;DHT22;10400;53.198;6.592;2023-07-13T16:06:22;23.10;1.00
20483;DHT22;10400;53.198;6.592;2023-07-13T16:08:49;23.00;1.00
20483;DHT22;10400;53.198;6.592;2023-07-13T16:11:27;22.80;1.00
20483;DHT22;10400;53.198;6.592;2023-07-13T16:13:53;22.70;1.00
20483;DHT22;10400;53.198;6.592;2023-07-13T16:16:22;22.50;1.00
20483;DHT22;10400;53.198;6.592;2023-07-13T16:18:54;22.20;1.00
20483;DHT22;10400;53.198;6.592;2023-07-13T16:21:22;22.10;1.00
20483;DHT22;10400;53.198;6.592;2023-07-13T16:23:49;22.00;1.00
20483;DHT22;10400;53.198;6.592;2023-07-13T16:26:33;22.50;1.00
20483;DHT22;10400;53.198;6.592;2023-07-13T16:29:22;22.70;1.00